This is the latest recevied weather packets stored in our database for station/object DC1NF-6. If no packets are shown the sender has not sent any weather packets the latest 10 day(s).
| Time | Temp. | Humidity | Pressure | Rain* | Wind** | Luminosity | Snow |
|---|---|---|---|---|---|---|---|
| 1777907141 | 23.89° C | 43% | 1012.5 hPa | 0 mm | - | - | - |
| 1777906537 | 24.44° C | 39% | 1012.5 hPa | 0 mm | - | - | - |
| 1777905933 | 24.44° C | 40% | 1012.6 hPa | 0 mm | - | - | - |
| 1777905329 | 24.44° C | 38% | 1012.5 hPa | 0 mm | - | - | - |
| 1777904726 | 24.44° C | 39% | 1012.6 hPa | 0 mm | - | - | - |
| 1777904121 | 24.44° C | 39% | 1012.6 hPa | 0 mm | - | - | - |
| 1777903517 | 25° C | 39% | 1012.7 hPa | 0 mm | - | - | - |
| 1777902974 | 25° C | 38% | 1012.8 hPa | 0 mm | - | - | - |
| 1777902370 | 25.56° C | 38% | 1012.8 hPa | 0 mm | - | - | - |
| 1777901766 | 25.56° C | 37% | 1012.9 hPa | 0 mm | - | - | - |
| 1777901162 | 25° C | 38% | 1013 hPa | 0 mm | - | - | - |
| 1777900558 | 25.56° C | 37% | 1013 hPa | 0 mm | - | - | - |
| 1777899955 | 26.67° C | 36% | 1013.1 hPa | 0 mm | - | - | - |
| 1777899351 | 27.22° C | 34% | 1013.2 hPa | 0 mm | - | - | - |
| 1777898746 | 26.11° C | 36% | 1013.3 hPa | 0 mm | - | - | - |
| 1777898142 | 26.11° C | 36% | 1013.3 hPa | 0 mm | - | - | - |
| 1777897538 | 26.11° C | 36% | 1013.4 hPa | 0 mm | - | - | - |
| 1777896934 | 26.11° C | 35% | 1013.4 hPa | 0 mm | - | - | - |
| 1777896330 | 26.67° C | 36% | 1013.4 hPa | 0 mm | - | - | - |
| 1777895727 | 26.11° C | 36% | 1013.6 hPa | 0 mm | - | - | - |
| 1777895122 | 25.56° C | 36% | 1013.6 hPa | 0 mm | - | - | - |
| 1777894518 | 25.56° C | 37% | 1013.6 hPa | 0 mm | - | - | - |
| 1777893975 | 25.56° C | 37% | 1013.7 hPa | 0 mm | - | - | - |
| 1777893370 | 26.11° C | 36% | 1013.8 hPa | 0 mm | - | - | - |
| 1777892766 | 26.11° C | 36% | 1013.8 hPa | 0 mm | - | - | - |
* Rain latest hour (hover to see other rain measurements)
** Current wind speed in m/s (hover to see current wind gust speed)